sensor_id;sensor_type;location;lat;lon;timestamp;P1;durP1;ratioP1;P2;durP2;ratioP2
1224;SDS011;602;48.000;7.840;2023-12-20T00:00:28;0.57;;;0.57;;
1224;SDS011;602;48.000;7.840;2023-12-20T00:02:55;1.40;;;0.70;;
1224;SDS011;602;48.000;7.840;2023-12-20T00:05:22;0.80;;;0.50;;
1224;SDS011;602;48.000;7.840;2023-12-20T00:07:50;0.40;;;0.40;;
1224;SDS011;602;48.000;7.840;2023-12-20T00:10:17;0.40;;;0.40;;
1224;SDS011;602;48.000;7.840;2023-12-20T00:12:44;0.83;;;0.70;;
1224;SDS011;602;48.000;7.840;2023-12-20T00:15:10;0.67;;;0.67;;
1224;SDS011;602;48.000;7.840;2023-12-20T00:17:37;0.90;;;0.77;;
1224;SDS011;602;48.000;7.840;2023-12-20T00:20:04;1.30;;;0.47;;
1224;SDS011;602;48.000;7.840;2023-12-20T00:22:32;0.40;;;0.40;;
1224;SDS011;602;48.000;7.840;2023-12-20T00:25:00;0.83;;;0.50;;
1224;SDS011;602;48.000;7.840;2023-12-20T00:27:27;0.60;;;0.50;;
1224;SDS011;602;48.000;7.840;2023-12-20T00:29:54;0.90;;;0.70;;
1224;SDS011;602;48.000;7.840;2023-12-20T00:32:21;0.67;;;0.67;;
1224;SDS011;602;48.000;7.840;2023-12-20T00:34:48;0.63;;;0.60;;
1224;SDS011;602;48.000;7.840;2023-12-20T00:37:15;0.70;;;0.70;;
1224;SDS011;602;48.000;7.840;2023-12-20T00:39:42;0.57;;;0.57;;
1224;SDS011;602;48.000;7.840;2023-12-20T00:42:10;0.93;;;0.53;;
1224;SDS011;602;48.000;7.840;2023-12-20T00:44:37;0.73;;;0.70;;
1224;SDS011;602;48.000;7.840;2023-12-20T00:47:04;0.60;;;0.50;;
1224;SDS011;602;48.000;7.840;2023-12-20T00:49:30;0.43;;;0.40;;
1224;SDS011;602;48.000;7.840;2023-12-20T00:51:57;0.70;;;0.70;;
1224;SDS011;602;48.000;7.840;2023-12-20T00:54:24;0.70;;;0.70;;
1224;SDS011;602;48.000;7.840;2023-12-20T00:56:51;0.70;;;0.60;;
1224;SDS011;602;48.000;7.840;2023-12-20T00:59:19;0.70;;;0.70;;
1224;SDS011;602;48.000;7.840;2023-12-20T01:01:46;0.63;;;0.63;;
1224;SDS011;602;48.000;7.840;2023-12-20T01:04:13;1.30;;;0.50;;
1224;SDS011;602;48.000;7.840;2023-12-20T01:06:39;0.43;;;0.43;;
1224;SDS011;602;48.000;7.840;2023-12-20T01:09:06;0.50;;;0.50;;
1224;SDS011;602;48.000;7.840;2023-12-20T01:11:33;0.50;;;0.50;;
1224;SDS011;602;48.000;7.840;2023-12-20T01:14:00;0.50;;;0.50;;
1224;SDS011;602;48.000;7.840;2023-12-20T01:16:28;0.50;;;0.50;;
1224;SDS011;602;48.000;7.840;2023-12-20T01:18:55;2.30;;;1.37;;
1224;SDS011;602;48.000;7.840;2023-12-20T01:21:22;0.40;;;0.40;;
1224;SDS011;602;48.000;7.840;2023-12-20T01:23:48;0.50;;;0.50;;
1224;SDS011;602;48.000;7.840;2023-12-20T01:26:15;0.73;;;0.63;;
1224;SDS011;602;48.000;7.840;2023-12-20T01:28:42;0.70;;;0.70;;
1224;SDS011;602;48.000;7.840;2023-12-20T01:31:09;1.43;;;1.13;;
1224;SDS011;602;48.000;7.840;2023-12-20T01:33:37;0.40;;;0.40;;
1224;SDS011;602;48.000;7.840;2023-12-20T01:36:04;2.77;;;0.57;;
1224;SDS011;602;48.000;7.840;2023-12-20T01:38:31;0.60;;;0.60;;
1224;SDS011;602;48.000;7.840;2023-12-20T01:40:58;0.50;;;0.50;;
1224;SDS011;602;48.000;7.840;2023-12-20T01:43:25;0.70;;;0.50;;
1224;SDS011;602;48.000;7.840;2023-12-20T01:45:52;0.47;;;0.47;;
1224;SDS011;602;48.000;7.840;2023-12-20T01:48:19;0.50;;;0.50;;
1224;SDS011;602;48.000;7.840;2023-12-20T01:50:48;0.30;;;0.30;;
1224;SDS011;602;48.000;7.840;2023-12-20T01:53:15;1.17;;;1.07;;
1224;SDS011;602;48.000;7.840;2023-12-20T01:55:43;0.60;;;0.60;;
1224;SDS011;602;48.000;7.840;2023-12-20T01:58:10;0.50;;;0.50;;
1224;SDS011;602;48.000;7.840;2023-12-20T02:00:38;0.43;;;0.43;;
1224;SDS011;602;48.000;7.840;2023-12-20T02:03:05;0.40;;;0.40;;
1224;SDS011;602;48.000;7.840;2023-12-20T02:05:33;0.60;;;0.60;;
1224;SDS011;602;48.000;7.840;2023-12-20T02:08:02;0.40;;;0.40;;
1224;SDS011;602;48.000;7.840;2023-12-20T02:10:30;0.50;;;0.50;;
1224;SDS011;602;48.000;7.840;2023-12-20T02:12:58;0.30;;;0.30;;
1224;SDS011;602;48.000;7.840;2023-12-20T02:15:25;0.37;;;0.37;;
1224;SDS011;602;48.000;7.840;2023-12-20T02:17:52;0.50;;;0.40;;
1224;SDS011;602;48.000;7.840;2023-12-20T02:20:19;5.53;;;0.80;;
1224;SDS011;602;48.000;7.840;2023-12-20T02:22:47;0.50;;;0.50;;
1224;SDS011;602;48.000;7.840;2023-12-20T02:25:14;0.57;;;0.53;;
1224;SDS011;602;48.000;7.840;2023-12-20T02:27:41;0.87;;;0.57;;
1224;SDS011;602;48.000;7.840;2023-12-20T02:30:09;0.40;;;0.40;;
1224;SDS011;602;48.000;7.840;2023-12-20T02:32:36;0.50;;;0.47;;
1224;SDS011;602;48.000;7.840;2023-12-20T02:35:03;0.80;;;0.40;;
1224;SDS011;602;48.000;7.840;2023-12-20T02:37:32;0.40;;;0.40;;
1224;SDS011;602;48.000;7.840;2023-12-20T02:40:00;0.57;;;0.33;;
1224;SDS011;602;48.000;7.840;2023-12-20T02:42:28;0.50;;;0.50;;
1224;SDS011;602;48.000;7.840;2023-12-20T02:44:54;0.50;;;0.50;;
1224;SDS011;602;48.000;7.840;2023-12-20T02:47:21;0.40;;;0.40;;
1224;SDS011;602;48.000;7.840;2023-12-20T02:49:48;0.70;;;0.60;;
1224;SDS011;602;48.000;7.840;2023-12-20T02:52:15;0.50;;;0.50;;
1224;SDS011;602;48.000;7.840;2023-12-20T02:54:42;0.63;;;0.63;;
1224;SDS011;602;48.000;7.840;2023-12-20T02:57:10;0.80;;;0.80;;
1224;SDS011;602;48.000;7.840;2023-12-20T02:59:37;0.93;;;0.83;;
1224;SDS011;602;48.000;7.840;2023-12-20T03:02:04;0.37;;;0.30;;
1224;SDS011;602;48.000;7.840;2023-12-20T03:04:31;0.70;;;0.70;;
1224;SDS011;602;48.000;7.840;2023-12-20T03:06:58;0.80;;;0.70;;
1224;SDS011;602;48.000;7.840;2023-12-20T03:09:25;0.57;;;0.53;;
1224;SDS011;602;48.000;7.840;2023-12-20T03:11:51;1.17;;;0.80;;
1224;SDS011;602;48.000;7.840;2023-12-20T03:14:20;0.90;;;0.60;;
1224;SDS011;602;48.000;7.840;2023-12-20T03:16:47;0.50;;;0.50;;
1224;SDS011;602;48.000;7.840;2023-12-20T03:19:15;0.60;;;0.60;;
1224;SDS011;602;48.000;7.840;2023-12-20T03:21:42;0.50;;;0.50;;
1224;SDS011;602;48.000;7.840;2023-12-20T03:24:09;0.73;;;0.50;;
1224;SDS011;602;48.000;7.840;2023-12-20T03:26:35;0.43;;;0.43;;
1224;SDS011;602;48.000;7.840;2023-12-20T03:29:02;0.50;;;0.50;;
1224;SDS011;602;48.000;7.840;2023-12-20T03:31:30;0.40;;;0.40;;
1224;SDS011;602;48.000;7.840;2023-12-20T03:33:57;0.73;;;0.73;;
1224;SDS011;602;48.000;7.840;2023-12-20T03:36:24;1.13;;;0.80;;
1224;SDS011;602;48.000;7.840;2023-12-20T03:38:51;0.50;;;0.50;;
1224;SDS011;602;48.000;7.840;2023-12-20T03:41:18;0.50;;;0.40;;
1224;SDS011;602;48.000;7.840;2023-12-20T03:43:44;1.37;;;0.70;;
1224;SDS011;602;48.000;7.840;2023-12-20T03:46:11;0.70;;;0.43;;
1224;SDS011;602;48.000;7.840;2023-12-20T03:48:39;0.50;;;0.50;;
1224;SDS011;602;48.000;7.840;2023-12-20T03:51:06;0.40;;;0.40;;
1224;SDS011;602;48.000;7.840;2023-12-20T03:53:33;0.57;;;0.50;;
1224;SDS011;602;48.000;7.840;2023-12-20T03:56:00;0.73;;;0.73;;
1224;SDS011;602;48.000;7.840;2023-12-20T03:58:27;0.50;;;0.50;;
1224;SDS011;602;48.000;7.840;2023-12-20T04:00:53;0.50;;;0.47;;
1224;SDS011;602;48.000;7.840;2023-12-20T04:03:20;0.67;;;0.67;;
1224;SDS011;602;48.000;7.840;2023-12-20T04:05:48;0.43;;;0.43;;
1224;SDS011;602;48.000;7.840;2023-12-20T04:08:15;0.40;;;0.40;;
1224;SDS011;602;48.000;7.840;2023-12-20T04:10:42;0.80;;;0.80;;
1224;SDS011;602;48.000;7.840;2023-12-20T04:13:09;1.67;;;0.80;;
1224;SDS011;602;48.000;7.840;2023-12-20T04:15:36;0.53;;;0.53;;
1224;SDS011;602;48.000;7.840;2023-12-20T04:18:03;0.37;;;0.37;;
1224;SDS011;602;48.000;7.840;2023-12-20T04:20:30;0.43;;;0.43;;
1224;SDS011;602;48.000;7.840;2023-12-20T04:22:58;0.50;;;0.50;;
1224;SDS011;602;48.000;7.840;2023-12-20T04:25:25;0.50;;;0.50;;
1224;SDS011;602;48.000;7.840;2023-12-20T04:27:51;0.40;;;0.40;;
1224;SDS011;602;48.000;7.840;2023-12-20T04:30:18;0.43;;;0.40;;
1224;SDS011;602;48.000;7.840;2023-12-20T04:32:45;0.43;;;0.43;;
1224;SDS011;602;48.000;7.840;2023-12-20T04:35:12;0.53;;;0.53;;
1224;SDS011;602;48.000;7.840;2023-12-20T04:37:39;0.40;;;0.30;;
1224;SDS011;602;48.000;7.840;2023-12-20T04:40:07;0.47;;;0.47;;
1224;SDS011;602;48.000;7.840;2023-12-20T04:42:35;0.40;;;0.40;;
1224;SDS011;602;48.000;7.840;2023-12-20T04:45:01;0.50;;;0.50;;
1224;SDS011;602;48.000;7.840;2023-12-20T04:47:28;0.30;;;0.30;;
1224;SDS011;602;48.000;7.840;2023-12-20T04:49:55;0.50;;;0.50;;
1224;SDS011;602;48.000;7.840;2023-12-20T04:52:22;0.80;;;0.50;;
1224;SDS011;602;48.000;7.840;2023-12-20T04:54:49;0.50;;;0.50;;
1224;SDS011;602;48.000;7.840;2023-12-20T04:57:17;0.50;;;0.50;;
1224;SDS011;602;48.000;7.840;2023-12-20T04:59:44;0.37;;;0.37;;
1224;SDS011;602;48.000;7.840;2023-12-20T05:02:11;0.57;;;0.57;;
1224;SDS011;602;48.000;7.840;2023-12-20T05:04:38;0.40;;;0.40;;
1224;SDS011;602;48.000;7.840;2023-12-20T05:07:04;0.50;;;0.50;;
1224;SDS011;602;48.000;7.840;2023-12-20T05:09:31;0.60;;;0.60;;
1224;SDS011;602;48.000;7.840;2023-12-20T05:11:58;0.43;;;0.43;;
1224;SDS011;602;48.000;7.840;2023-12-20T05:14:26;0.70;;;0.60;;
1224;SDS011;602;48.000;7.840;2023-12-20T05:16:53;0.40;;;0.40;;
1224;SDS011;602;48.000;7.840;2023-12-20T05:19:20;1.13;;;0.90;;
1224;SDS011;602;48.000;7.840;2023-12-20T05:21:47;0.70;;;0.50;;
1224;SDS011;602;48.000;7.840;2023-12-20T05:24:14;0.60;;;0.50;;
1224;SDS011;602;48.000;7.840;2023-12-20T05:26:41;0.50;;;0.50;;
1224;SDS011;602;48.000;7.840;2023-12-20T05:29:08;0.60;;;0.60;;
1224;SDS011;602;48.000;7.840;2023-12-20T05:31:36;0.60;;;0.50;;
1224;SDS011;602;48.000;7.840;2023-12-20T05:34:03;0.70;;;0.70;;
1224;SDS011;602;48.000;7.840;2023-12-20T05:36:30;0.70;;;0.70;;
1224;SDS011;602;48.000;7.840;2023-12-20T05:38:56;0.73;;;0.67;;
1224;SDS011;602;48.000;7.840;2023-12-20T05:41:23;0.70;;;0.53;;
1224;SDS011;602;48.000;7.840;2023-12-20T05:43:50;0.40;;;0.40;;
1224;SDS011;602;48.000;7.840;2023-12-20T05:46:17;0.67;;;0.67;;
1224;SDS011;602;48.000;7.840;2023-12-20T05:48:45;0.63;;;0.60;;
1224;SDS011;602;48.000;7.840;2023-12-20T05:51:12;4.30;;;0.67;;
1224;SDS011;602;48.000;7.840;2023-12-20T05:53:39;0.90;;;0.70;;
1224;SDS011;602;48.000;7.840;2023-12-20T05:56:06;0.60;;;0.60;;
1224;SDS011;602;48.000;7.840;2023-12-20T05:58:33;0.93;;;0.80;;
1224;SDS011;602;48.000;7.840;2023-12-20T06:00:59;0.80;;;0.70;;
1224;SDS011;602;48.000;7.840;2023-12-20T06:03:26;1.50;;;1.03;;
1224;SDS011;602;48.000;7.840;2023-12-20T06:05:54;0.70;;;0.60;;
1224;SDS011;602;48.000;7.840;2023-12-20T06:08:21;0.70;;;0.70;;
1224;SDS011;602;48.000;7.840;2023-12-20T06:10:48;0.83;;;0.60;;
1224;SDS011;602;48.000;7.840;2023-12-20T06:13:15;0.37;;;0.37;;
1224;SDS011;602;48.000;7.840;2023-12-20T06:15:42;0.50;;;0.50;;
1224;SDS011;602;48.000;7.840;2023-12-20T06:18:09;0.70;;;0.60;;
1224;SDS011;602;48.000;7.840;2023-12-20T06:20:37;0.60;;;0.50;;
1224;SDS011;602;48.000;7.840;2023-12-20T06:23:05;0.60;;;0.60;;
1224;SDS011;602;48.000;7.840;2023-12-20T06:25:32;0.63;;;0.63;;
1224;SDS011;602;48.000;7.840;2023-12-20T06:27:59;0.50;;;0.50;;
1224;SDS011;602;48.000;7.840;2023-12-20T06:30:26;0.40;;;0.40;;
1224;SDS011;602;48.000;7.840;2023-12-20T06:32:53;0.50;;;0.50;;
1224;SDS011;602;48.000;7.840;2023-12-20T06:35:22;0.40;;;0.40;;
1224;SDS011;602;48.000;7.840;2023-12-20T06:37:49;0.40;;;0.40;;
1224;SDS011;602;48.000;7.840;2023-12-20T06:40:18;0.77;;;0.43;;
1224;SDS011;602;48.000;7.840;2023-12-20T06:42:45;0.40;;;0.40;;
1224;SDS011;602;48.000;7.840;2023-12-20T06:45:12;1.10;;;0.97;;
1224;SDS011;602;48.000;7.840;2023-12-20T06:47:39;1.60;;;0.90;;
1224;SDS011;602;48.000;7.840;2023-12-20T06:50:06;0.57;;;0.57;;
1224;SDS011;602;48.000;7.840;2023-12-20T06:52:33;1.10;;;0.77;;
1224;SDS011;602;48.000;7.840;2023-12-20T06:55:01;5.03;;;1.17;;
1224;SDS011;602;48.000;7.840;2023-12-20T06:57:29;1.00;;;1.00;;
1224;SDS011;602;48.000;7.840;2023-12-20T06:59:56;0.90;;;0.90;;
1224;SDS011;602;48.000;7.840;2023-12-20T07:02:23;0.90;;;0.90;;
1224;SDS011;602;48.000;7.840;2023-12-20T07:04:49;0.60;;;0.60;;
1224;SDS011;602;48.000;7.840;2023-12-20T07:07:16;0.40;;;0.40;;
1224;SDS011;602;48.000;7.840;2023-12-20T07:09:43;0.50;;;0.50;;
1224;SDS011;602;48.000;7.840;2023-12-20T07:12:10;0.50;;;0.50;;
1224;SDS011;602;48.000;7.840;2023-12-20T07:14:38;0.80;;;0.73;;
1224;SDS011;602;48.000;7.840;2023-12-20T07:17:05;0.40;;;0.40;;
1224;SDS011;602;48.000;7.840;2023-12-20T07:19:36;0.77;;;0.60;;
1224;SDS011;602;48.000;7.840;2023-12-20T07:22:03;0.87;;;0.50;;
1224;SDS011;602;48.000;7.840;2023-12-20T07:24:30;0.67;;;0.60;;
1224;SDS011;602;48.000;7.840;2023-12-20T07:26:57;0.70;;;0.70;;
1224;SDS011;602;48.000;7.840;2023-12-20T07:29:25;1.50;;;1.40;;
1224;SDS011;602;48.000;7.840;2023-12-20T07:31:53;0.60;;;0.60;;
1224;SDS011;602;48.000;7.840;2023-12-20T07:34:20;0.73;;;0.73;;
1224;SDS011;602;48.000;7.840;2023-12-20T07:36:47;0.50;;;0.50;;
1224;SDS011;602;48.000;7.840;2023-12-20T07:39:14;1.07;;;1.03;;
1224;SDS011;602;48.000;7.840;2023-12-20T07:41:41;0.80;;;0.80;;
1224;SDS011;602;48.000;7.840;2023-12-20T07:44:08;1.00;;;1.00;;
1224;SDS011;602;48.000;7.840;2023-12-20T07:46:35;1.50;;;1.30;;
1224;SDS011;602;48.000;7.840;2023-12-20T07:49:03;2.30;;;1.10;;
1224;SDS011;602;48.000;7.840;2023-12-20T07:51:31;0.97;;;0.80;;
1224;SDS011;602;48.000;7.840;2023-12-20T07:53:58;2.00;;;0.60;;
1224;SDS011;602;48.000;7.840;2023-12-20T07:56:24;0.57;;;0.53;;
1224;SDS011;602;48.000;7.840;2023-12-20T07:58:51;0.80;;;0.80;;
1224;SDS011;602;48.000;7.840;2023-12-20T08:01:18;1.00;;;1.00;;
1224;SDS011;602;48.000;7.840;2023-12-20T08:03:45;1.37;;;1.00;;
1224;SDS011;602;48.000;7.840;2023-12-20T08:06:13;1.10;;;1.10;;
1224;SDS011;602;48.000;7.840;2023-12-20T08:08:42;0.83;;;0.83;;
1224;SDS011;602;48.000;7.840;2023-12-20T08:11:09;1.67;;;1.30;;
1224;SDS011;602;48.000;7.840;2023-12-20T08:13:35;2.30;;;1.10;;
1224;SDS011;602;48.000;7.840;2023-12-20T08:16:02;1.23;;;1.07;;
1224;SDS011;602;48.000;7.840;2023-12-20T08:18:30;1.03;;;0.90;;
1224;SDS011;602;48.000;7.840;2023-12-20T08:20:56;1.50;;;0.83;;
1224;SDS011;602;48.000;7.840;2023-12-20T08:23:25;0.77;;;0.77;;
1224;SDS011;602;48.000;7.840;2023-12-20T08:25:51;1.47;;;0.93;;
1224;SDS011;602;48.000;7.840;2023-12-20T08:28:18;1.80;;;0.93;;
1224;SDS011;602;48.000;7.840;2023-12-20T08:30:45;1.17;;;1.07;;
1224;SDS011;602;48.000;7.840;2023-12-20T08:33:12;1.67;;;1.10;;
1224;SDS011;602;48.000;7.840;2023-12-20T08:35:39;1.60;;;1.20;;
1224;SDS011;602;48.000;7.840;2023-12-20T08:38:06;1.17;;;0.90;;
1224;SDS011;602;48.000;7.840;2023-12-20T08:40:35;0.60;;;0.60;;
1224;SDS011;602;48.000;7.840;2023-12-20T08:43:02;0.70;;;0.70;;
1224;SDS011;602;48.000;7.840;2023-12-20T08:45:29;2.00;;;1.10;;
1224;SDS011;602;48.000;7.840;2023-12-20T08:47:55;0.63;;;0.63;;
1224;SDS011;602;48.000;7.840;2023-12-20T08:50:22;0.80;;;0.57;;
1224;SDS011;602;48.000;7.840;2023-12-20T08:52:50;0.80;;;0.80;;
1224;SDS011;602;48.000;7.840;2023-12-20T08:55:17;0.80;;;0.80;;
1224;SDS011;602;48.000;7.840;2023-12-20T08:57:45;0.80;;;0.80;;
1224;SDS011;602;48.000;7.840;2023-12-20T09:00:12;0.87;;;0.87;;
1224;SDS011;602;48.000;7.840;2023-12-20T09:02:41;1.50;;;1.40;;
1224;SDS011;602;48.000;7.840;2023-12-20T09:05:08;1.50;;;1.40;;
1224;SDS011;602;48.000;7.840;2023-12-20T09:07:35;0.83;;;0.83;;
1224;SDS011;602;48.000;7.840;2023-12-20T09:10:01;0.60;;;0.60;;
1224;SDS011;602;48.000;7.840;2023-12-20T09:12:29;1.43;;;1.13;;
1224;SDS011;602;48.000;7.840;2023-12-20T09:14:57;1.13;;;0.73;;
1224;SDS011;602;48.000;7.840;2023-12-20T09:17:24;0.77;;;0.73;;
1224;SDS011;602;48.000;7.840;2023-12-20T09:19:52;0.73;;;0.73;;
1224;SDS011;602;48.000;7.840;2023-12-20T09:22:19;0.77;;;0.73;;
1224;SDS011;602;48.000;7.840;2023-12-20T09:24:46;1.30;;;0.80;;
1224;SDS011;602;48.000;7.840;2023-12-20T09:27:12;0.90;;;0.90;;
1224;SDS011;602;48.000;7.840;2023-12-20T09:29:39;1.00;;;0.97;;
1224;SDS011;602;48.000;7.840;2023-12-20T09:32:07;1.27;;;1.20;;
1224;SDS011;602;48.000;7.840;2023-12-20T09:34:34;0.97;;;0.93;;
1224;SDS011;602;48.000;7.840;2023-12-20T09:37:02;2.40;;;1.00;;
1224;SDS011;602;48.000;7.840;2023-12-20T09:39:30;0.80;;;0.80;;
1224;SDS011;602;48.000;7.840;2023-12-20T09:42:00;0.93;;;0.93;;
1224;SDS011;602;48.000;7.840;2023-12-20T09:44:27;0.73;;;0.73;;
1224;SDS011;602;48.000;7.840;2023-12-20T09:46:55;0.90;;;0.90;;
1224;SDS011;602;48.000;7.840;2023-12-20T09:49:24;2.77;;;1.17;;
1224;SDS011;602;48.000;7.840;2023-12-20T09:51:53;1.30;;;1.20;;
1224;SDS011;602;48.000;7.840;2023-12-20T09:54:21;2.63;;;1.57;;
1224;SDS011;602;48.000;7.840;2023-12-20T09:56:48;1.77;;;1.67;;
1224;SDS011;602;48.000;7.840;2023-12-20T09:59:15;1.70;;;1.37;;
1224;SDS011;602;48.000;7.840;2023-12-20T10:01:42;1.67;;;1.43;;
1224;SDS011;602;48.000;7.840;2023-12-20T10:04:10;1.80;;;1.47;;
1224;SDS011;602;48.000;7.840;2023-12-20T10:06:40;1.83;;;1.70;;
1224;SDS011;602;48.000;7.840;2023-12-20T10:09:08;1.70;;;1.30;;
1224;SDS011;602;48.000;7.840;2023-12-20T10:11:35;1.60;;;1.40;;
1224;SDS011;602;48.000;7.840;2023-12-20T10:14:03;2.17;;;1.50;;
1224;SDS011;602;48.000;7.840;2023-12-20T10:16:30;1.40;;;1.30;;
1224;SDS011;602;48.000;7.840;2023-12-20T10:18:58;2.33;;;1.50;;
1224;SDS011;602;48.000;7.840;2023-12-20T10:21:26;1.90;;;1.40;;
1224;SDS011;602;48.000;7.840;2023-12-20T10:23:54;1.17;;;1.07;;
1224;SDS011;602;48.000;7.840;2023-12-20T10:26:22;3.13;;;2.20;;
1224;SDS011;602;48.000;7.840;2023-12-20T10:28:50;1.77;;;1.67;;
1224;SDS011;602;48.000;7.840;2023-12-20T10:31:28;3.30;;;2.17;;
1224;SDS011;602;48.000;7.840;2023-12-20T10:33:56;1.33;;;1.23;;
1224;SDS011;602;48.000;7.840;2023-12-20T10:36:25;1.93;;;1.10;;
1224;SDS011;602;48.000;7.840;2023-12-20T10:38:54;1.40;;;1.30;;
1224;SDS011;602;48.000;7.840;2023-12-20T10:41:24;2.17;;;1.60;;
1224;SDS011;602;48.000;7.840;2023-12-20T10:43:53;1.27;;;1.27;;
1224;SDS011;602;48.000;7.840;2023-12-20T10:46:25;1.70;;;1.40;;
1224;SDS011;602;48.000;7.840;2023-12-20T10:48:53;2.13;;;1.93;;
1224;SDS011;602;48.000;7.840;2023-12-20T10:51:20;2.33;;;2.10;;
1224;SDS011;602;48.000;7.840;2023-12-20T10:53:48;2.03;;;1.50;;
1224;SDS011;602;48.000;7.840;2023-12-20T10:56:17;3.17;;;1.90;;
1224;SDS011;602;48.000;7.840;2023-12-20T10:58:45;1.33;;;1.23;;
1224;SDS011;602;48.000;7.840;2023-12-20T11:01:12;4.73;;;1.90;;
1224;SDS011;602;48.000;7.840;2023-12-20T11:03:43;3.27;;;2.37;;
1224;SDS011;602;48.000;7.840;2023-12-20T11:06:16;1.30;;;1.10;;
1224;SDS011;602;48.000;7.840;2023-12-20T11:08:55;3.37;;;1.63;;
1224;SDS011;602;48.000;7.840;2023-12-20T11:11:37;2.80;;;2.10;;
1224;SDS011;602;48.000;7.840;2023-12-20T11:14:11;1.80;;;1.70;;
1224;SDS011;602;48.000;7.840;2023-12-20T11:16:43;4.00;;;1.90;;
1224;SDS011;602;48.000;7.840;2023-12-20T11:19:11;1.53;;;1.43;;
1224;SDS011;602;48.000;7.840;2023-12-20T11:21:39;1.87;;;1.77;;
1224;SDS011;602;48.000;7.840;2023-12-20T11:24:07;2.30;;;1.93;;
1224;SDS011;602;48.000;7.840;2023-12-20T11:26:33;1.70;;;1.37;;
1224;SDS011;602;48.000;7.840;2023-12-20T11:32:02;1.53;;;1.30;;
1224;SDS011;602;48.000;7.840;2023-12-20T11:34:50;4.70;;;1.60;;
1224;SDS011;602;48.000;7.840;2023-12-20T11:37:17;3.10;;;1.50;;
1224;SDS011;602;48.000;7.840;2023-12-20T11:39:53;1.00;;;0.97;;
1224;SDS011;602;48.000;7.840;2023-12-20T11:42:21;1.17;;;1.03;;
1224;SDS011;602;48.000;7.840;2023-12-20T11:44:49;1.10;;;1.10;;
1224;SDS011;602;48.000;7.840;2023-12-20T11:47:17;1.17;;;1.10;;
1224;SDS011;602;48.000;7.840;2023-12-20T11:49:44;3.93;;;2.47;;
1224;SDS011;602;48.000;7.840;2023-12-20T11:52:13;4.63;;;1.30;;
1224;SDS011;602;48.000;7.840;2023-12-20T11:54:40;1.90;;;1.17;;
1224;SDS011;602;48.000;7.840;2023-12-20T11:57:07;1.20;;;1.03;;
1224;SDS011;602;48.000;7.840;2023-12-20T11:59:34;0.87;;;0.73;;
1224;SDS011;602;48.000;7.840;2023-12-20T12:02:03;1.57;;;0.90;;
1224;SDS011;602;48.000;7.840;2023-12-20T12:04:30;2.50;;;1.27;;
1224;SDS011;602;48.000;7.840;2023-12-20T12:06:57;0.77;;;0.77;;
1224;SDS011;602;48.000;7.840;2023-12-20T12:09:24;0.97;;;0.70;;
1224;SDS011;602;48.000;7.840;2023-12-20T12:11:51;5.03;;;1.00;;
1224;SDS011;602;48.000;7.840;2023-12-20T12:14:18;1.33;;;0.87;;
1224;SDS011;602;48.000;7.840;2023-12-20T12:16:45;2.60;;;2.40;;
1224;SDS011;602;48.000;7.840;2023-12-20T12:19:21;5.10;;;1.20;;
1224;SDS011;602;48.000;7.840;2023-12-20T12:21:48;4.83;;;1.03;;
1224;SDS011;602;48.000;7.840;2023-12-20T12:24:19;1.70;;;0.90;;
1224;SDS011;602;48.000;7.840;2023-12-20T12:26:49;1.80;;;1.00;;
1224;SDS011;602;48.000;7.840;2023-12-20T12:29:16;3.37;;;0.97;;
1224;SDS011;602;48.000;7.840;2023-12-20T12:31:43;1.90;;;0.70;;
1224;SDS011;602;48.000;7.840;2023-12-20T12:34:10;1.57;;;1.13;;
1224;SDS011;602;48.000;7.840;2023-12-20T12:36:39;3.40;;;2.17;;
1224;SDS011;602;48.000;7.840;2023-12-20T12:39:06;1.20;;;1.03;;
1224;SDS011;602;48.000;7.840;2023-12-20T12:41:33;1.77;;;1.10;;
1224;SDS011;602;48.000;7.840;2023-12-20T12:44:00;2.20;;;1.10;;
1224;SDS011;602;48.000;7.840;2023-12-20T12:46:27;0.73;;;0.73;;
1224;SDS011;602;48.000;7.840;2023-12-20T12:48:54;1.07;;;0.50;;
1224;SDS011;602;48.000;7.840;2023-12-20T12:51:21;1.20;;;0.70;;
1224;SDS011;602;48.000;7.840;2023-12-20T12:53:49;1.00;;;0.90;;
1224;SDS011;602;48.000;7.840;2023-12-20T12:56:16;3.77;;;0.93;;
1224;SDS011;602;48.000;7.840;2023-12-20T12:58:43;0.50;;;0.50;;
1224;SDS011;602;48.000;7.840;2023-12-20T13:01:10;7.10;;;0.80;;
1224;SDS011;602;48.000;7.840;2023-12-20T13:03:37;1.70;;;1.03;;
1224;SDS011;602;48.000;7.840;2023-12-20T13:06:04;0.90;;;0.60;;
1224;SDS011;602;48.000;7.840;2023-12-20T13:08:33;3.23;;;0.90;;
1224;SDS011;602;48.000;7.840;2023-12-20T13:11:02;0.93;;;0.90;;
1224;SDS011;602;48.000;7.840;2023-12-20T13:13:29;1.47;;;1.00;;
1224;SDS011;602;48.000;7.840;2023-12-20T13:15:56;2.30;;;0.87;;
1224;SDS011;602;48.000;7.840;2023-12-20T13:18:23;2.60;;;0.93;;
1224;SDS011;602;48.000;7.840;2023-12-20T13:20:50;0.60;;;0.60;;
1224;SDS011;602;48.000;7.840;2023-12-20T13:23:17;0.40;;;0.40;;
1224;SDS011;602;48.000;7.840;2023-12-20T13:25:44;2.53;;;0.60;;
1224;SDS011;602;48.000;7.840;2023-12-20T13:28:13;2.00;;;1.13;;
1224;SDS011;602;48.000;7.840;2023-12-20T13:30:40;4.07;;;1.03;;
1224;SDS011;602;48.000;7.840;2023-12-20T13:33:07;5.20;;;1.67;;
1224;SDS011;602;48.000;7.840;2023-12-20T13:35:35;4.93;;;1.90;;
1224;SDS011;602;48.000;7.840;2023-12-20T13:38:02;1.83;;;1.30;;
1224;SDS011;602;48.000;7.840;2023-12-20T13:40:29;2.67;;;1.60;;
1224;SDS011;602;48.000;7.840;2023-12-20T13:42:57;1.23;;;1.20;;
1224;SDS011;602;48.000;7.840;2023-12-20T13:45:25;1.43;;;1.20;;
1224;SDS011;602;48.000;7.840;2023-12-20T13:47:52;1.83;;;1.73;;
1224;SDS011;602;48.000;7.840;2023-12-20T13:50:18;2.20;;;1.10;;
1224;SDS011;602;48.000;7.840;2023-12-20T13:52:45;2.77;;;1.47;;
1224;SDS011;602;48.000;7.840;2023-12-20T13:55:12;1.20;;;1.10;;
1224;SDS011;602;48.000;7.840;2023-12-20T13:57:39;3.37;;;1.57;;
1224;SDS011;602;48.000;7.840;2023-12-20T14:00:06;1.17;;;0.80;;
1224;SDS011;602;48.000;7.840;2023-12-20T14:02:40;5.90;;;1.43;;
1224;SDS011;602;48.000;7.840;2023-12-20T14:05:08;13.50;;;6.50;;
1224;SDS011;602;48.000;7.840;2023-12-20T14:07:35;9.77;;;2.57;;
1224;SDS011;602;48.000;7.840;2023-12-20T14:10:02;5.70;;;2.87;;
1224;SDS011;602;48.000;7.840;2023-12-20T14:12:30;1.57;;;1.40;;
1224;SDS011;602;48.000;7.840;2023-12-20T14:15:00;2.50;;;2.30;;
1224;SDS011;602;48.000;7.840;2023-12-20T14:17:27;5.50;;;2.40;;
1224;SDS011;602;48.000;7.840;2023-12-20T14:19:56;2.73;;;1.70;;
1224;SDS011;602;48.000;7.840;2023-12-20T14:22:23;4.70;;;2.70;;
1224;SDS011;602;48.000;7.840;2023-12-20T14:24:50;3.93;;;2.20;;
1224;SDS011;602;48.000;7.840;2023-12-20T14:27:17;1.73;;;1.20;;
1224;SDS011;602;48.000;7.840;2023-12-20T14:29:47;1.70;;;1.40;;
1224;SDS011;602;48.000;7.840;2023-12-20T14:32:14;4.67;;;2.90;;
1224;SDS011;602;48.000;7.840;2023-12-20T14:34:41;2.13;;;1.90;;
1224;SDS011;602;48.000;7.840;2023-12-20T14:37:09;9.00;;;3.67;;
1224;SDS011;602;48.000;7.840;2023-12-20T14:39:36;4.50;;;3.20;;
1224;SDS011;602;48.000;7.840;2023-12-20T14:42:06;6.90;;;4.10;;
1224;SDS011;602;48.000;7.840;2023-12-20T14:44:36;2.67;;;2.47;;
1224;SDS011;602;48.000;7.840;2023-12-20T14:47:03;3.80;;;2.37;;
1224;SDS011;602;48.000;7.840;2023-12-20T14:49:30;4.97;;;3.70;;
1224;SDS011;602;48.000;7.840;2023-12-20T14:51:57;2.27;;;2.13;;
1224;SDS011;602;48.000;7.840;2023-12-20T14:54:26;1.50;;;1.40;;
1224;SDS011;602;48.000;7.840;2023-12-20T14:56:52;1.10;;;1.03;;
1224;SDS011;602;48.000;7.840;2023-12-20T14:59:20;3.60;;;1.87;;
1224;SDS011;602;48.000;7.840;2023-12-20T15:01:47;3.73;;;1.33;;
1224;SDS011;602;48.000;7.840;2023-12-20T15:04:14;8.60;;;1.43;;
1224;SDS011;602;48.000;7.840;2023-12-20T15:06:41;1.27;;;1.17;;
1224;SDS011;602;48.000;7.840;2023-12-20T15:09:09;0.83;;;0.83;;
1224;SDS011;602;48.000;7.840;2023-12-20T15:11:38;8.40;;;1.70;;
1224;SDS011;602;48.000;7.840;2023-12-20T15:14:05;1.47;;;1.37;;
1224;SDS011;602;48.000;7.840;2023-12-20T15:16:32;3.30;;;1.70;;
1224;SDS011;602;48.000;7.840;2023-12-20T15:19:00;1.83;;;1.30;;
1224;SDS011;602;48.000;7.840;2023-12-20T15:21:28;5.17;;;3.10;;
1224;SDS011;602;48.000;7.840;2023-12-20T15:23:57;1.43;;;0.80;;
1224;SDS011;602;48.000;7.840;2023-12-20T15:26:31;2.60;;;1.70;;
1224;SDS011;602;48.000;7.840;2023-12-20T15:28:59;1.50;;;1.40;;
1224;SDS011;602;48.000;7.840;2023-12-20T15:31:27;1.37;;;1.00;;
1224;SDS011;602;48.000;7.840;2023-12-20T15:33:53;3.10;;;1.40;;